createdAt,value
2022-12-13T00:01:32.552Z,14.43
2022-12-13T00:04:02.546Z,13.40
2022-12-13T00:06:31.268Z,14.05
2022-12-13T00:09:01.046Z,13.32
2022-12-13T00:11:30.061Z,13.18
2022-12-13T00:13:58.478Z,13.15
2022-12-13T00:16:27.978Z,12.35
2022-12-13T00:18:57.865Z,13.18
2022-12-13T00:21:27.086Z,13.57
2022-12-13T00:23:55.411Z,13.18
2022-12-13T00:26:26.058Z,13.40
2022-12-13T00:28:54.535Z,12.55
2022-12-13T00:34:12.262Z,13.30
2022-12-13T00:36:40.559Z,13.23
2022-12-13T00:39:08.857Z,13.25
2022-12-13T00:41:38.625Z,14.60
2022-12-13T00:44:06.973Z,13.52
2022-12-13T00:46:35.317Z,14.52
2022-12-13T00:49:03.774Z,12.70
2022-12-13T00:51:32.756Z,13.95
2022-12-13T00:54:01.233Z,12.85
2022-12-13T00:56:30.397Z,13.18
2022-12-13T00:59:00.375Z,12.25
2022-12-13T01:01:30.419Z,11.95
2022-12-13T01:03:59.723Z,12.80
2022-12-13T01:06:29.549Z,13.60
2022-12-13T01:08:57.887Z,12.15
2022-12-13T01:11:26.752Z,13.55
2022-12-13T01:13:55.054Z,13.40
2022-12-13T01:16:24.698Z,12.10
2022-12-13T01:18:53.102Z,12.38
2022-12-13T01:21:22.335Z,13.93
2022-12-13T01:23:50.786Z,14.02
2022-12-13T01:26:20.166Z,14.00
2022-12-13T01:28:48.881Z,13.48
2022-12-13T01:31:19.546Z,12.60
2022-12-13T01:33:49.787Z,13.65
2022-12-13T01:36:19.564Z,13.65
2022-12-13T01:38:58.575Z,13.25
2022-12-13T01:41:28.043Z,12.95
2022-12-13T01:44:03.112Z,13.13
2022-12-13T01:46:32.240Z,12.13
2022-12-13T01:49:04.368Z,12.88
2022-12-13T01:51:35.978Z,13.52
2022-12-13T01:54:05.387Z,13.20
2022-12-13T01:56:36.265Z,12.57
2022-12-13T01:59:06.585Z,13.05
2022-12-13T02:01:35.900Z,14.35
2022-12-13T02:04:05.689Z,12.30
2022-12-13T02:06:35.491Z,13.05
2022-12-13T02:09:05.905Z,13.82
2022-12-13T02:11:35.095Z,13.70
2022-12-13T02:14:03.472Z,12.10
2022-12-13T02:16:39.936Z,12.52
2022-12-13T02:19:24.365Z,14.10
2022-12-13T02:21:56.114Z,13.18
2022-12-13T02:24:42.011Z,11.73
2022-12-13T02:27:15.168Z,13.85
2022-12-13T02:29:59.462Z,11.73
2022-12-13T02:32:31.889Z,13.35
2022-12-13T02:35:04.815Z,13.63
2022-12-13T02:37:34.864Z,12.73
2022-12-13T02:40:07.787Z,12.82
2022-12-13T02:42:38.267Z,12.27
2022-12-13T02:45:09.498Z,12.57
2022-12-13T02:47:39.619Z,14.00
2022-12-13T02:50:08.736Z,12.15
2022-12-13T02:52:37.466Z,12.63
2022-12-13T02:55:08.402Z,11.70
2022-12-13T02:57:37.502Z,12.18
2022-12-13T03:00:07.660Z,12.15
2022-12-13T03:02:42.053Z,12.73
2022-12-13T03:05:35.053Z,12.27
2022-12-13T03:08:11.149Z,12.38
2022-12-13T03:10:42.271Z,12.10
2022-12-13T03:13:31.941Z,11.63
2022-12-13T03:16:03.172Z,11.70
2022-12-13T03:18:34.718Z,13.15
2022-12-13T03:21:04.382Z,13.00
2022-12-13T03:23:33.173Z,12.25
2022-12-13T03:26:04.633Z,13.43
2022-12-13T03:28:32.923Z,11.65
2022-12-13T03:31:01.243Z,12.73
2022-12-13T03:33:29.580Z,12.52
2022-12-13T03:35:59.486Z,12.77
2022-12-13T03:38:28.148Z,11.30
2022-12-13T03:40:57.882Z,12.35
2022-12-13T03:43:26.612Z,12.13
2022-12-13T03:45:55.366Z,12.65
2022-12-13T03:48:24.359Z,11.32
2022-12-13T03:50:53.931Z,12.65
2022-12-13T03:53:32.979Z,13.57
2022-12-13T03:56:02.555Z,12.68
2022-12-13T03:58:35.966Z,11.75
2022-12-13T04:01:05.582Z,12.60
2022-12-13T04:03:33.895Z,9.95
2022-12-13T04:06:02.245Z,11.63
2022-12-13T04:08:31.977Z,11.45
2022-12-13T04:11:20.449Z,9.48
2022-12-13T04:13:47.878Z,11.52
2022-12-13T04:16:16.231Z,11.20
2022-12-13T04:18:44.668Z,12.23
2022-12-13T04:21:12.971Z,11.50
2022-12-13T04:23:42.602Z,9.70
2022-12-13T04:26:11.110Z,10.77
2022-12-13T04:28:39.563Z,11.35
2022-12-13T04:31:07.909Z,12.90
2022-12-13T04:33:36.249Z,10.73
2022-12-13T04:36:04.625Z,10.75
2022-12-13T04:38:32.972Z,11.50
2022-12-13T04:41:15.962Z,10.63
2022-12-13T04:43:44.293Z,11.10
2022-12-13T04:46:13.154Z,9.68
2022-12-13T04:48:41.511Z,10.95
2022-12-13T04:51:09.775Z,10.88
2022-12-13T04:53:38.099Z,9.90
2022-12-13T04:56:07.871Z,10.70
2022-12-13T04:58:39.246Z,10.35
2022-12-13T05:01:08.945Z,10.20
2022-12-13T05:03:37.501Z,9.70
2022-12-13T05:06:06.411Z,10.52
2022-12-13T05:08:54.726Z,10.07
2022-12-13T05:11:35.455Z,10.35
2022-12-13T05:14:05.816Z,9.57
2022-12-13T05:16:34.152Z,10.77
2022-12-13T05:19:02.457Z,9.75
2022-12-13T05:21:30.747Z,10.48
2022-12-13T05:23:59.044Z,10.50
2022-12-13T05:26:27.371Z,10.27
2022-12-13T05:28:57.182Z,11.57
2022-12-13T05:31:26.859Z,9.90
2022-12-13T05:33:55.686Z,12.00
2022-12-13T05:36:30.207Z,10.90
2022-12-13T05:38:58.499Z,11.32
2022-12-13T05:41:28.604Z,10.88
2022-12-13T05:43:56.924Z,10.50
2022-12-13T05:46:26.582Z,10.30
2022-12-13T05:48:54.981Z,9.77
2022-12-13T05:51:23.275Z,9.82
2022-12-13T05:53:53.412Z,10.75
2022-12-13T05:56:22.456Z,11.02
2022-12-13T05:58:53.466Z,11.52
2022-12-13T06:01:23.514Z,11.38
2022-12-13T06:03:53.930Z,10.75
2022-12-13T06:06:22.300Z,11.40
2022-12-13T06:08:51.670Z,9.77
2022-12-13T06:11:30.977Z,10.95
2022-12-13T06:14:01.356Z,10.98
2022-12-13T06:16:30.124Z,11.10
2022-12-13T06:19:04.331Z,11.10
2022-12-13T06:21:41.607Z,10.95
2022-12-13T06:24:15.519Z,10.05
2022-12-13T06:26:45.304Z,12.60
2022-12-13T06:29:23.475Z,11.25
2022-12-13T06:31:54.979Z,10.52
2022-12-13T06:34:32.970Z,11.95
2022-12-13T06:37:03.177Z,11.55
2022-12-13T06:39:33.254Z,11.13
2022-12-13T06:42:08.509Z,11.65
2022-12-13T06:44:37.566Z,11.52
2022-12-13T06:47:10.305Z,12.23
2022-12-13T06:49:43.475Z,11.07
2022-12-13T06:52:12.909Z,11.30
2022-12-13T06:54:41.281Z,11.65
2022-12-13T06:57:09.654Z,10.90
2022-12-13T06:59:38.050Z,11.35
2022-12-13T07:02:24.654Z,9.95
2022-12-13T07:04:56.596Z,11.07
2022-12-13T07:07:26.167Z,10.93
2022-12-13T07:09:57.295Z,10.57
2022-12-13T07:12:28.515Z,10.25
2022-12-13T07:14:58.658Z,10.35
2022-12-13T07:17:32.969Z,10.35
2022-12-13T07:20:12.472Z,10.35
2022-12-13T07:22:47.808Z,10.15
2022-12-13T07:25:26.873Z,11.05
2022-12-13T07:28:01.464Z,11.07
2022-12-13T07:30:31.254Z,10.40
2022-12-13T07:32:59.556Z,11.55
2022-12-13T07:35:29.222Z,10.75
2022-12-13T07:37:57.735Z,11.95
2022-12-13T07:40:26.167Z,10.88
2022-12-13T07:42:55.188Z,10.05
2022-12-13T07:45:24.878Z,11.30
2022-12-13T07:47:53.272Z,11.48
2022-12-13T07:50:24.072Z,11.18
2022-12-13T07:52:54.939Z,10.57
2022-12-13T07:55:33.007Z,10.23
2022-12-13T07:58:07.223Z,9.68
2022-12-13T08:00:37.754Z,11.13
2022-12-13T08:03:06.568Z,11.23
2022-12-13T08:05:40.044Z,10.38
2022-12-13T08:08:11.568Z,11.35
2022-12-13T08:10:40.196Z,10.88
2022-12-13T08:13:08.671Z,10.77
2022-12-13T08:15:37.025Z,11.77
2022-12-13T08:18:06.441Z,10.63
2022-12-13T08:20:34.861Z,10.77
2022-12-13T08:23:03.227Z,9.77
2022-12-13T08:25:33.401Z,10.07
2022-12-13T08:28:02.642Z,9.70
2022-12-13T08:30:32.086Z,10.02
2022-12-13T08:33:05.274Z,9.98
2022-12-13T08:35:35.167Z,9.75
2022-12-13T08:38:04.585Z,9.98
2022-12-13T08:40:35.112Z,10.15
2022-12-13T08:43:03.740Z,10.98
2022-12-13T08:45:34.120Z,11.35
2022-12-13T08:48:03.184Z,11.13
2022-12-13T08:50:32.061Z,10.50
2022-12-13T08:53:00.370Z,10.90
2022-12-13T08:55:32.194Z,12.00
2022-12-13T08:58:06.848Z,9.07
2022-12-13T09:00:36.647Z,10.55
2022-12-13T09:03:09.996Z,9.88
2022-12-13T09:05:39.252Z,10.43
2022-12-13T09:08:24.895Z,10.88
2022-12-13T09:11:00.531Z,9.93
2022-12-13T09:13:33.020Z,10.07
2022-12-13T09:16:04.771Z,10.40
2022-12-13T09:18:36.012Z,9.48
2022-12-13T09:21:11.900Z,9.43
2022-12-13T09:23:45.629Z,10.43
2022-12-13T09:26:15.933Z,11.05
2022-12-13T09:28:45.617Z,11.45
2022-12-13T09:31:14.858Z,10.70
2022-12-13T09:33:43.400Z,11.15
2022-12-13T09:36:12.817Z,9.95
2022-12-13T09:38:41.185Z,9.85
2022-12-13T09:41:19.524Z,10.10
2022-12-13T09:43:51.505Z,9.65
2022-12-13T09:46:24.650Z,10.25
2022-12-13T09:49:01.798Z,10.02
2022-12-13T09:51:41.213Z,10.95
2022-12-13T09:54:17.728Z,10.15
2022-12-13T09:56:51.189Z,10.65
2022-12-13T09:59:24.793Z,10.75
2022-12-13T10:01:53.195Z,10.25
2022-12-13T10:04:21.629Z,9.60
2022-12-13T10:06:53.112Z,10.32
2022-12-13T10:09:21.618Z,10.10
2022-12-13T10:11:51.227Z,10.10
2022-12-13T10:14:22.959Z,9.98
2022-12-13T10:16:53.262Z,10.65
2022-12-13T10:19:28.155Z,12.20
2022-12-13T10:22:01.450Z,11.25
2022-12-13T10:24:37.071Z,11.38
2022-12-13T10:27:12.974Z,11.50
2022-12-13T10:29:56.426Z,11.27
2022-12-13T10:32:26.099Z,9.82
2022-12-13T10:34:55.495Z,10.65
2022-12-13T10:37:28.424Z,10.52
2022-12-13T10:39:56.765Z,11.13
2022-12-13T10:42:29.231Z,10.23
2022-12-13T10:45:12.106Z,10.15
2022-12-13T10:47:43.745Z,10.77
2022-12-13T10:50:23.566Z,11.38
2022-12-13T10:52:51.987Z,11.10
2022-12-13T10:55:26.647Z,9.80
2022-12-13T10:57:55.769Z,10.57
2022-12-13T11:00:32.467Z,10.90
2022-12-13T11:03:02.150Z,10.18
2022-12-13T11:05:32.373Z,10.38
2022-12-13T11:08:13.965Z,9.80
2022-12-13T11:10:42.885Z,9.60
2022-12-13T11:13:24.087Z,9.93
2022-12-13T11:15:56.463Z,9.90
2022-12-13T11:18:27.794Z,10.13
2022-12-13T11:20:58.734Z,9.68
2022-12-13T11:23:29.623Z,10.13
2022-12-13T11:25:59.613Z,11.18
2022-12-13T11:28:45.477Z,9.50
2022-12-13T11:31:17.953Z,9.48
2022-12-13T11:33:54.198Z,9.90
2022-12-13T11:36:29.133Z,9.20
2022-12-13T11:39:04.914Z,9.55
2022-12-13T11:41:35.722Z,10.18
2022-12-13T11:44:08.444Z,10.73
2022-12-13T11:46:40.136Z,10.32
2022-12-13T11:49:13.413Z,11.40
2022-12-13T11:51:43.803Z,10.80
2022-12-13T11:54:24.068Z,9.68
2022-12-13T11:57:00.015Z,9.45
2022-12-13T11:59:39.421Z,10.23
2022-12-13T12:02:16.756Z,9.38
2022-12-13T12:04:54.918Z,9.25
2022-12-13T12:07:33.800Z,9.68
2022-12-13T12:10:06.852Z,10.70
2022-12-13T12:12:36.333Z,9.85
2022-12-13T12:15:15.437Z,10.93
2022-12-13T12:17:44.428Z,11.70
2022-12-13T12:20:23.556Z,11.68
2022-12-13T12:22:57.827Z,10.80
2022-12-13T12:25:42.363Z,11.13
2022-12-13T12:28:14.525Z,10.50
2022-12-13T12:30:49.777Z,11.13
2022-12-13T12:33:23.815Z,11.27
2022-12-13T12:36:00.197Z,10.18
2022-12-13T12:38:38.504Z,10.63
2022-12-13T12:41:17.633Z,10.15
2022-12-13T12:43:46.977Z,10.05
2022-12-13T12:46:22.975Z,11.20
2022-12-13T12:49:03.088Z,12.52
2022-12-13T12:51:34.729Z,13.27
2022-12-13T12:54:10.655Z,12.90
2022-12-13T12:56:41.095Z,10.38
2022-12-13T12:59:13.301Z,11.45
2022-12-13T13:01:52.128Z,10.48
2022-12-13T13:04:24.341Z,10.30
2022-12-13T13:07:01.689Z,10.65
2022-12-13T13:09:31.266Z,10.48
2022-12-13T13:12:00.358Z,11.15
2022-12-13T13:14:48.860Z,11.05
2022-12-13T13:17:37.060Z,11.00
2022-12-13T13:20:18.149Z,10.18
2022-12-13T13:23:04.015Z,11.23
2022-12-13T13:25:53.980Z,11.20
2022-12-13T13:28:25.450Z,10.50
2022-12-13T13:31:04.028Z,11.30
2022-12-13T13:33:47.153Z,10.95
2022-12-13T13:36:34.956Z,9.88
2022-12-13T13:39:04.732Z,10.50
2022-12-13T13:41:43.567Z,10.23
2022-12-13T13:44:30.631Z,9.07
2022-12-13T13:47:15.089Z,10.35
2022-12-13T13:49:47.957Z,10.43
2022-12-13T13:52:25.305Z,9.88
2022-12-13T13:55:08.157Z,10.73
2022-12-13T13:58:10.652Z,10.18
2022-12-13T14:00:54.698Z,10.30
2022-12-13T14:03:53.933Z,9.38
2022-12-13T14:06:31.317Z,10.13
2022-12-13T14:09:09.160Z,10.30
2022-12-13T14:11:56.109Z,10.27
2022-12-13T14:14:39.331Z,11.20
2022-12-13T14:17:23.055Z,9.55
2022-12-13T14:20:09.758Z,10.70
2022-12-13T14:22:42.247Z,10.98
2022-12-13T14:25:27.953Z,10.85
2022-12-13T14:27:58.099Z,10.77
2022-12-13T14:30:29.197Z,10.35
2022-12-13T14:32:59.465Z,10.80
2022-12-13T14:35:28.995Z,9.88
2022-12-13T14:37:58.701Z,10.98
2022-12-13T14:40:28.786Z,9.57
2022-12-13T14:42:57.128Z,9.95
2022-12-13T14:45:28.077Z,9.95
2022-12-13T14:47:57.064Z,10.27
2022-12-13T14:50:27.740Z,10.57
2022-12-13T14:52:57.636Z,10.00
2022-12-13T14:55:27.835Z,10.52
2022-12-13T14:57:57.001Z,9.10
2022-12-13T15:00:28.295Z,9.48
2022-12-13T15:02:59.752Z,9.75
2022-12-13T15:05:30.289Z,10.35
2022-12-13T15:07:58.655Z,9.65
2022-12-13T15:10:39.690Z,10.10
2022-12-13T15:13:08.106Z,11.25
2022-12-13T15:15:37.429Z,11.13
2022-12-13T15:18:07.279Z,11.25
2022-12-13T15:20:42.078Z,11.43
2022-12-13T15:23:28.144Z,11.15
2022-12-13T15:26:09.607Z,10.73
2022-12-13T15:28:40.483Z,9.98
2022-12-13T15:31:09.495Z,10.32
2022-12-13T15:33:48.123Z,9.93
2022-12-13T15:36:20.652Z,9.15
2022-12-13T15:38:51.747Z,10.50
2022-12-13T15:41:21.304Z,10.98
2022-12-13T15:43:51.318Z,9.13
2022-12-13T15:46:25.227Z,10.02
2022-12-13T15:48:54.041Z,10.48
2022-12-13T15:51:29.657Z,9.90
2022-12-13T15:54:04.028Z,10.57
2022-12-13T15:56:33.530Z,9.45
2022-12-13T15:59:04.230Z,9.82
2022-12-13T16:01:35.223Z,10.40
2022-12-13T16:04:05.136Z,8.90
2022-12-13T16:06:35.225Z,9.20
2022-12-13T16:09:05.014Z,9.30
2022-12-13T16:11:34.907Z,9.77
2022-12-13T16:14:25.828Z,10.02
2022-12-13T16:16:54.921Z,9.90
2022-12-13T16:19:23.296Z,9.38
2022-12-13T16:21:52.979Z,10.23
2022-12-13T16:24:21.282Z,9.55
2022-12-13T16:26:49.975Z,9.10
2022-12-13T16:29:19.561Z,7.63
2022-12-13T16:31:47.998Z,9.45
2022-12-13T16:34:19.304Z,9.40
2022-12-13T16:36:47.704Z,8.32
2022-12-13T16:39:17.321Z,8.38
2022-12-13T16:41:47.771Z,10.02
2022-12-13T16:44:21.735Z,9.13
2022-12-13T16:47:18.214Z,9.05
2022-12-13T16:49:38.780Z,8.52
2022-12-13T16:52:08.272Z,9.63
2022-12-13T16:54:37.938Z,9.27
2022-12-13T16:57:06.238Z,9.13
2022-12-13T16:59:34.558Z,8.07
2022-12-13T17:02:02.920Z,8.13
2022-12-13T17:04:31.268Z,7.97
2022-12-13T17:06:59.862Z,8.65
2022-12-13T17:09:28.146Z,7.57
2022-12-13T17:11:57.762Z,7.68
2022-12-13T17:14:26.053Z,7.55
2022-12-13T17:16:54.426Z,7.97
2022-12-13T17:19:22.818Z,7.28
2022-12-13T17:21:51.137Z,7.07
2022-12-13T17:24:19.465Z,6.50
2022-12-13T17:26:54.923Z,7.20
2022-12-13T17:29:26.234Z,7.28
2022-12-13T17:31:54.592Z,6.53
2022-12-13T17:34:23.093Z,7.15
2022-12-13T17:36:51.438Z,6.65
2022-12-13T17:39:20.174Z,6.50
2022-12-13T17:41:55.135Z,7.00
2022-12-13T17:44:26.457Z,6.88
2022-12-13T17:46:55.753Z,9.23
2022-12-13T17:49:24.841Z,9.98
2022-12-13T17:51:53.940Z,6.63
2022-12-13T17:54:23.474Z,6.88
2022-12-13T17:56:51.793Z,7.43
2022-12-13T17:59:20.109Z,13.82
2022-12-13T18:01:49.820Z,10.20
2022-12-13T18:04:18.222Z,25.17
2022-12-13T18:06:46.627Z,11.30
2022-12-13T18:09:15.328Z,9.57
2022-12-13T18:11:43.731Z,8.32
2022-12-13T18:14:12.047Z,9.27
2022-12-13T18:16:41.268Z,8.52
2022-12-13T18:19:14.103Z,26.98
2022-12-13T18:21:43.954Z,11.13
2022-12-13T18:24:12.752Z,14.63
2022-12-13T18:26:41.153Z,39.75
2022-12-13T18:29:09.498Z,10.73
2022-12-13T18:31:38.150Z,9.52
2022-12-13T18:34:07.483Z,9.48
2022-12-13T18:36:37.263Z,8.63
2022-12-13T18:39:05.666Z,9.10
2022-12-13T18:41:34.181Z,7.95
2022-12-13T18:44:03.731Z,8.30
2022-12-13T18:46:33.373Z,8.10
2022-12-13T18:49:01.726Z,7.30
2022-12-13T18:51:30.040Z,8.63
2022-12-13T18:53:59.747Z,7.65
2022-12-13T18:56:28.262Z,8.52
2022-12-13T18:58:56.809Z,8.43
2022-12-13T19:01:26.963Z,8.27
2022-12-13T19:03:55.803Z,8.43
2022-12-13T19:06:25.066Z,8.57
2022-12-13T19:08:54.104Z,8.30
2022-12-13T19:11:23.861Z,8.75
2022-12-13T19:13:52.162Z,9.70
2022-12-13T19:16:21.969Z,9.88
2022-12-13T19:18:50.510Z,11.30
2022-12-13T19:21:20.353Z,9.55
2022-12-13T19:23:55.922Z,9.93
2022-12-13T19:26:27.962Z,9.93
2022-12-13T19:28:57.396Z,8.65
2022-12-13T19:31:31.190Z,9.38
2022-12-13T19:34:01.524Z,10.73
2022-12-13T19:36:29.887Z,9.18
2022-12-13T19:38:58.194Z,8.82
2022-12-13T19:41:28.194Z,11.68
2022-12-13T19:43:56.642Z,10.30
2022-12-13T19:46:25.272Z,10.82
2022-12-13T19:48:53.614Z,7.65
2022-12-13T19:51:22.843Z,9.38
2022-12-13T19:53:52.215Z,9.65
2022-12-13T19:56:21.794Z,8.65
2022-12-13T19:58:52.139Z,9.02
2022-12-13T20:01:20.761Z,8.20
2022-12-13T20:03:49.133Z,8.07
2022-12-13T20:06:18.346Z,11.43
2022-12-13T20:08:47.061Z,9.98
2022-12-13T20:11:16.970Z,9.05
2022-12-13T20:13:45.359Z,8.13
2022-12-13T20:16:17.879Z,8.73
2022-12-13T20:18:46.528Z,8.80
2022-12-13T20:21:15.440Z,8.25
2022-12-13T20:23:48.959Z,8.23
2022-12-13T20:26:20.718Z,8.10
2022-12-13T20:28:50.201Z,8.52
2022-12-13T20:31:21.237Z,8.52
2022-12-13T20:33:49.854Z,9.00
2022-12-13T20:36:27.423Z,8.63
2022-12-13T20:38:56.777Z,8.43
2022-12-13T20:41:25.996Z,9.18
2022-12-13T20:43:54.469Z,7.43
2022-12-13T20:46:24.578Z,8.10
2022-12-13T20:48:53.326Z,7.60
2022-12-13T20:51:22.977Z,8.57
2022-12-13T20:53:52.242Z,7.45
2022-12-13T20:56:21.393Z,8.10
2022-12-13T20:58:50.368Z,7.57
2022-12-13T21:01:19.861Z,7.95
2022-12-13T21:03:49.921Z,7.43
2022-12-13T21:06:18.257Z,7.25
2022-12-13T21:08:52.415Z,7.03
2022-12-13T21:11:26.930Z,7.55
2022-12-13T21:14:00.019Z,6.88
2022-12-13T21:16:33.416Z,7.35
2022-12-13T21:19:03.134Z,7.72
2022-12-13T21:21:31.498Z,7.15
2022-12-13T21:23:59.907Z,7.40
2022-12-13T21:26:33.267Z,6.97
2022-12-13T21:29:05.452Z,7.18
2022-12-13T21:31:34.037Z,6.72
2022-12-13T21:34:05.027Z,7.10
2022-12-13T21:36:34.356Z,6.32
2022-12-13T21:39:03.628Z,6.20
2022-12-13T21:41:31.971Z,7.80
2022-12-13T21:44:00.704Z,7.22
2022-12-13T21:46:55.220Z,6.70
2022-12-13T21:49:24.288Z,6.60
2022-12-13T21:51:55.237Z,6.78
2022-12-13T21:54:25.166Z,5.78
2022-12-13T21:57:11.132Z,6.95
2022-12-13T21:59:39.595Z,5.93
2022-12-13T22:02:18.382Z,6.38
2022-12-13T22:04:55.204Z,6.68
2022-12-13T22:07:28.230Z,6.65
2022-12-13T22:09:57.841Z,6.70
2022-12-13T22:12:30.455Z,6.15
2022-12-13T22:14:59.059Z,6.80
2022-12-13T22:17:34.699Z,6.28
2022-12-13T22:20:06.411Z,6.72
2022-12-13T22:22:34.916Z,7.05
2022-12-13T22:25:03.228Z,7.05
2022-12-13T22:27:31.788Z,7.45
2022-12-13T22:30:00.301Z,6.93
2022-12-13T22:32:29.498Z,6.50
2022-12-13T22:34:58.000Z,6.10
2022-12-13T22:37:28.144Z,7.07
2022-12-13T22:39:56.506Z,7.57
2022-12-13T22:42:24.787Z,6.75
2022-12-13T22:44:53.112Z,7.30
2022-12-13T22:47:21.403Z,6.75
2022-12-13T22:49:49.804Z,5.85
2022-12-13T22:52:18.259Z,6.20
2022-12-13T22:54:47.957Z,6.53
2022-12-13T22:57:16.282Z,6.45
2022-12-13T22:59:44.641Z,5.93
2022-12-13T23:02:13.156Z,5.20
2022-12-13T23:04:41.508Z,5.35
2022-12-13T23:07:10.707Z,5.63
2022-12-13T23:09:39.046Z,6.07
2022-12-13T23:12:26.508Z,5.57
2022-12-13T23:14:54.899Z,5.57
2022-12-13T23:17:23.245Z,5.50
2022-12-13T23:19:53.358Z,4.88
2022-12-13T23:22:22.381Z,5.57
2022-12-13T23:24:50.892Z,5.88
2022-12-13T23:27:21.499Z,5.40
2022-12-13T23:29:49.870Z,5.78
2022-12-13T23:32:18.482Z,5.53
2022-12-13T23:34:46.866Z,6.07
2022-12-13T23:37:15.133Z,5.07
2022-12-13T23:39:43.859Z,5.78
2022-12-13T23:42:12.155Z,5.57
2022-12-13T23:44:41.876Z,5.35
2022-12-13T23:47:10.153Z,5.32
2022-12-13T23:49:38.460Z,5.30
2022-12-13T23:52:06.759Z,5.47
2022-12-13T23:54:35.053Z,5.78
2022-12-13T23:57:03.366Z,5.30
2022-12-13T23:59:31.667Z,5.45
